20:21
Airports
History
Links
Donate
Help keep this website running!
PayPal
Bitcoin
Information on this page is community maintained and may be outdated or inaccurate and is intended for reference only or PC simulator navigating.
Always use approved charts for navigating.
VAAH
AHMEDABAD
AHMEDABAD (VAAH)
Ahmedabad, Gujarat, India (382475)
(C)
Lat/Lng:23° 4' 37.91" N / 72° 38' 4.68" E
23.077196 / 72.634632
Elevation:189'ft 58mMSL
ID / ICAO:VAAH
Runways:1
Longest:(05-23) 3,492.3m 11,458ft Asphalt
Controlled:Yes
Distance To
Airport ID:
Airport Radio Frequencies
ATIS: 126.8
Tower: 118.1
Approach: 119.8, 123.75, 118.1, 119.6
Nearby VORs <50NM
Nearby NDBs
METARUpdated 05-28-17 20:00 GMT
Altimeter: 29.56
Visibility: 2.5 statute miles
Wind: 10 knots (260°)
Temp: 32°c 90°f
Humidity: 62.8%

METAR: VAAH 282000Z 26010KT 4000 HZ NSC 32/24 Q1001 NOSIG

(Powered by phpweather)
Runway 05 / 23
Dimensions:3492.3 x 45.7m 11458' x 150'ft
Surface:Asphalt
Edge Lights:High intensity
Runway 05 [A]Runway 23 [B]
Heading:044°TH 224°TH
Lat:
Lng:
23° 3' 57.61"N
72° 37' 21.55"E
23° 5' 18.2"N
72° 38' 47.8"E
ALS:SALSALSF-I
User Notes and Comments
Google Map
Nearby Airports
(C) VADODARA 63.6 NM
VABO SE 143°
(U) DEESA 86.7 NM
VADS NNW 341°
(C) BHAVNAGAR 95.9 NM
VABV (WX) SSW 197°
(U) ABU ROAD 98.3 NM
VA74 N
(U) BANSWARA 112.2 NM
VA51 ENE 71°
(U) SIROHI 126.3 NM
VA38 N
(C) RAJKOT 129.6 NM
VARK (WX) WSW 245°
VFR Chart
Flight Planning at SkyVector.com